• Join FlightAware (Why Join?)
  • Login
  • US Flag 
02:29PM EDT


 

Airport Tracker/Info


-or-


 

Live Flight TrackerFlight Track Log ✈ DAL1283 ✈ 26-Apr-2013 ✈ KMSP - KIND

Flight Track Log - Related Links

Times and Time Zones

All times are in EDT time to prevent confusion due to time zone crossing. See the DAL1283 flight status page for this flight to view local times or setup timezone preferences in your user account.

Time Position Orientation Groundspeed Altitude Reporting Facility
EDT Latitude Longitude Course Direction KTS MPH feet Rate Location/Type
06:50PM 44.9000 -93.3000 140° Southeast 214 246 3,600  Level Minneapolis TRACON
06:51PM 44.8811 -93.4122 257° West 262 302 6,800 1,620 Climbing Minneapolis Center
06:52PM 44.6230 -92.8305 141° Southeast  Level Estimated
06:52PM 44.8167 -93.4556 206° Southwest 281 323 7,200  Level Minneapolis Center
06:53PM 44.5363 -92.7008 137° Southeast  Level Estimated
06:53PM 44.7408 -93.4333 168° South 297 342 10,800  Level Minneapolis Center
06:54PM 44.4495 -92.5715 120° Southeast  Level Estimated
06:54PM 44.6706 -93.3114 129° Southeast 373 429 13,000  Level Minneapolis Center
06:55PM 44.3531 -92.4567 140° Southeast  Level FlightAware Approximate
06:55PM 44.6189 -93.1744 118° Southeast 410 472 15,700  Level Minneapolis Center
06:56PM 44.5603 -93.0306 120° Southeast 427 491 18,400 2,460 Climbing Minneapolis Center
06:57PM 44.5000 -92.8833 120° Southeast 438 504 20,900 2,460 Climbing Minneapolis Center
06:58PM 44.4236 -92.6961 120° Southeast 461 531 23,600 2,340 Climbing Minneapolis Center
06:59PM 44.3592 -92.5372 120° Southeast 469 540 25,800 2,220 Climbing Minneapolis Center
07:00PM 44.2944 -92.3808 120° Southeast 468 539 28,300 2,340 Climbing Minneapolis Center
07:01PM 44.2297 -92.2264 120° Southeast 464 534 30,700 1,980 Climbing Minneapolis Center
07:02PM 44.1683 -92.0767 120° Southeast 450 518 32,400 1,080 Climbing Minneapolis Center
07:03PM 44.0917 -91.8933 120° Southeast 456 525 33,000 240 Climbing Minneapolis Center
07:05PM 44.0272 -91.7400 120° Southeast 460 529 33,000  Level Minneapolis Center
07:06PM 43.9647 -91.5953 121° Southeast 462 532 33,000  Level Minneapolis Center
07:07PM 43.8975 -91.4461 122° Southeast 461 531 33,000  Level Minneapolis Center
07:08PM 43.8064 -91.3208 135° Southeast 462 532 33,000  Level Minneapolis Center
07:09PM 43.6983 -91.1703 135° Southeast 461 531 33,000  Level Minneapolis Center
07:10PM 43.6075 -91.0436 135° Southeast 465 535 33,000  Level Minneapolis Center
07:11PM 43.5181 -90.9178 134° Southeast 464 534 33,000  Level Minneapolis Center
07:12PM 43.4281 -90.7936 135° Southeast 461 531 33,000  Level Minneapolis Center
07:13PM 43.3378 -90.6697 135° Southeast 461 531 33,000  Level Minneapolis Center
07:13PM 43.2658 -90.5719 135° Southeast 463 533 33,000  Level Chicago Center
07:15PM 43.1756 -90.4481 135° Southeast 462 532 33,000  Level Chicago Center
07:16PM 43.0828 -90.3242 136° Southeast 466 536 33,000  Level Chicago Center
07:17PM 42.9917 -90.2008 135° Southeast 464 534 33,000  Level Chicago Center
07:18PM 42.8825 -90.0522 135° Southeast 464 534 33,000  Level Chicago Center
07:19PM 42.7892 -89.9278 136° Southeast 471 542 33,000  Level Chicago Center
07:20PM 42.6908 -89.8006 136° Southeast 473 544 33,000  Level Chicago Center
07:21PM 42.5975 -89.6767 136° Southeast 472 543 33,000  Level Chicago Center
07:22PM 42.5031 -89.5517 136° Southeast 475 547 33,000  Level Chicago Center
07:23PM 42.4067 -89.4267 136° Southeast 481 554 33,000  Level Chicago Center
07:24PM 42.2944 -89.2786 136° Southeast 485 558 33,000  Level Chicago Center
07:25PM 42.1978 -89.1536 136° Southeast 484 557 33,000  Level Chicago Center
07:26PM 42.1014 -89.0278 136° Southeast 484 557 33,000  Level Chicago Center
07:27PM 41.9958 -88.8928 136° Southeast 487 560 33,000  Level Chicago Center
07:28PM 41.8994 -88.7683 136° Southeast 484 557 33,000  Level Chicago Center
07:29PM 41.8025 -88.6442 136° Southeast 484 557 33,000  Level Chicago Center
07:30PM 41.7047 -88.5194 136° Southeast 489 563 33,000 -600 Level Chicago Center
07:31PM 41.6067 -88.3950 136° Southeast 490 564 31,800 -1,440 Descending Chicago Center
07:32PM 41.4781 -88.2636 143° Southeast 490 564 30,100 -1,380 Descending Chicago Center
07:33PM 41.3636 -88.1764 150° Southeast 491 565 29,000 -540 Descending Chicago Center
07:34PM 41.2503 -88.0839 148° Southeast 494 568 29,000  Level Chicago Center
07:35PM 41.1114 -87.9731 149° Southeast 493 567 29,000 -60 Level Chicago Center
07:36PM 40.9944 -87.8819 150° Southeast 494 568 28,900 -900 Descending Chicago Center
07:37PM 40.8783 -87.7892 149° Southeast 491 565 27,200 -1,380 Descending Chicago Center
07:38PM 40.7619 -87.6986 149° Southeast 490 564 26,100 -1,140 Descending Chicago Center
07:39PM 40.6472 -87.6114 150° Southeast 480 552 24,900 -1,800 Descending Chicago Center
07:40PM 40.5372 -87.5294 150° Southeast 460 529 22,400 -2,640 Descending Chicago Center
07:41PM 40.4242 -87.4186 143° Southeast 444 511 19,500 -2,280 Descending Chicago Center
07:42PM 40.3625 -87.2864 121° Southeast 427 491 17,700 -1,680 Descending Chicago Center
07:43PM 40.3014 -87.1603 122° Southeast 409 471 16,100 -1,800 Descending Chicago Center
07:44PM 40.2436 -87.0389 122° Southeast 395 455 14,100 -1,500 Descending Chicago Center
07:46PM 40.1872 -86.9236 123° Southeast 377 434 13,000 -1,140 Descending Chicago Center
07:47PM 40.1125 -86.7986 128° Southeast 374 430 11,800 -1,320 Descending Chicago Center
07:48PM 40.0567 -86.7192 133° Southeast 360 414 10,400 -900 Descending Indianapolis Center
07:49PM 39.9939 -86.6267 132° Southeast 295 339 10,000 -540 Descending Indianapolis Center
07:50PM 39.9433 -86.5531 132° Southeast 275 316 9,300 -1,320 Descending Indianapolis Center
07:51PM 39.8933 -86.4811 132° Southeast 268 308 7,300 -1,140 Descending Indianapolis Center
07:52PM 39.8486 -86.4053 128° Southeast 271 312 7,000 -180 Descending Indianapolis Center
07:53PM 39.8553 -86.3078 85° East 268 308 7,000 -840 Level Indianapolis Center
07:54PM 39.8539 -86.2319 91° East 219 252 5,400 -1,740 Descending Indianapolis Center
07:55PM 39.8161 -86.1922 141° Southeast 185 213 3,500 -1,860 Descending Indianapolis Center